createdAt,value
2019-03-05T00:01:24.514Z,4.60
2019-03-05T00:03:53.436Z,4.60
2019-03-05T00:06:21.013Z,4.60
2019-03-05T00:08:49.965Z,4.60
2019-03-05T00:11:19.421Z,4.50
2019-03-05T00:13:50.535Z,4.50
2019-03-05T00:16:18.187Z,4.50
2019-03-05T00:18:47.085Z,4.50
2019-03-05T00:21:14.432Z,4.50
2019-03-05T00:24:13.022Z,4.50
2019-03-05T00:26:40.413Z,4.40
2019-03-05T00:29:55.847Z,4.50
2019-03-05T00:32:27.289Z,4.50
2019-03-05T00:35:23.045Z,4.40
2019-03-05T00:38:04.042Z,4.50
2019-03-05T00:41:01.744Z,4.50
2019-03-05T00:44:17.923Z,4.50
2019-03-05T00:47:24.272Z,4.50
2019-03-05T00:50:38.777Z,4.50
2019-03-05T00:53:49.568Z,4.50
2019-03-05T00:56:35.839Z,4.50
2019-03-05T00:59:48.333Z,4.50
2019-03-05T01:02:46.807Z,4.50
2019-03-05T01:05:53.741Z,4.50
2019-03-05T01:08:23.614Z,4.50
2019-03-05T01:10:53.985Z,4.50
2019-03-05T01:13:21.776Z,4.50
2019-03-05T01:15:51.994Z,4.40
2019-03-05T01:18:20.500Z,4.50
2019-03-05T01:20:48.284Z,4.50
2019-03-05T01:26:11.141Z,4.50
2019-03-05T01:28:38.666Z,4.40
2019-03-05T01:31:26.987Z,4.40
2019-03-05T01:34:24.750Z,4.40
2019-03-05T01:36:56.670Z,4.40
2019-03-05T01:39:40.125Z,4.40
2019-03-05T01:42:17.025Z,4.40
2019-03-05T01:44:46.692Z,4.40
2019-03-05T01:47:15.263Z,4.40
2019-03-05T01:49:47.306Z,4.40
2019-03-05T01:52:16.709Z,4.40
2019-03-05T01:54:44.371Z,4.40
2019-03-05T01:57:14.627Z,4.40
2019-03-05T01:59:42.109Z,4.40
2019-03-05T02:02:12.389Z,4.40
2019-03-05T02:04:42.113Z,4.40
2019-03-05T02:07:09.770Z,4.40
2019-03-05T02:09:47.152Z,4.40
2019-03-05T02:12:19.534Z,4.40
2019-03-05T02:14:52.718Z,4.40
2019-03-05T02:17:22.447Z,4.40
2019-03-05T02:19:51.120Z,4.40
2019-03-05T02:23:06.402Z,4.40
2019-03-05T02:25:55.549Z,4.40
2019-03-05T02:28:38.182Z,4.40
2019-03-05T02:31:47.415Z,4.40
2019-03-05T02:34:23.097Z,4.40
2019-03-05T02:37:41.109Z,4.30
2019-03-05T02:40:51.036Z,4.40
2019-03-05T02:43:59.520Z,4.30
2019-03-05T02:46:42.175Z,4.30
2019-03-05T02:49:32.916Z,4.30
2019-03-05T02:52:37.276Z,4.30
2019-03-05T02:55:27.961Z,4.30
2019-03-05T02:57:54.426Z,4.30
2019-03-05T03:00:53.343Z,4.30
2019-03-05T03:03:26.776Z,4.30
2019-03-05T03:06:03.849Z,4.30
2019-03-05T03:08:32.219Z,4.30
2019-03-05T03:10:59.839Z,4.30
2019-03-05T03:13:28.367Z,4.30
2019-03-05T03:15:58.380Z,4.30
2019-03-05T03:18:25.795Z,4.30
2019-03-05T03:20:54.137Z,4.30
2019-03-05T03:23:30.786Z,4.30
2019-03-05T03:25:59.350Z,4.30
2019-03-05T03:28:27.069Z,4.30
2019-03-05T03:30:55.715Z,4.30
2019-03-05T03:33:25.746Z,4.30
2019-03-05T03:35:55.885Z,4.30
2019-03-05T03:38:23.462Z,4.30
2019-03-05T03:40:50.926Z,4.40
2019-03-05T03:43:21.701Z,4.30
2019-03-05T03:45:49.264Z,4.30
2019-03-05T03:48:19.032Z,4.30
2019-03-05T03:50:46.391Z,4.30
2019-03-05T03:53:14.738Z,4.30
2019-03-05T03:55:43.256Z,4.30
2019-03-05T03:58:11.857Z,4.20
2019-03-05T04:00:41.424Z,4.30
2019-03-05T04:03:09.370Z,4.20
2019-03-05T04:05:37.277Z,4.20
2019-03-05T04:08:04.420Z,4.20
2019-03-05T04:10:32.197Z,4.20
2019-03-05T04:12:59.721Z,4.20
2019-03-05T04:15:29.798Z,4.20
2019-03-05T04:17:58.139Z,4.10
2019-03-05T04:20:39.072Z,4.10
2019-03-05T04:23:10.122Z,4.10
2019-03-05T04:25:37.767Z,4.10
2019-03-05T04:28:15.362Z,4.10
2019-03-05T04:30:42.790Z,4.10
2019-03-05T04:33:11.002Z,4.10
2019-03-05T04:35:38.408Z,4.10
2019-03-05T04:38:05.655Z,4.10
2019-03-05T04:40:34.324Z,4.10
2019-03-05T04:43:02.779Z,4.00
2019-03-05T04:45:54.362Z,4.10
2019-03-05T04:48:21.623Z,4.00
2019-03-05T04:51:01.309Z,4.00
2019-03-05T04:53:32.591Z,4.00
2019-03-05T04:56:00.922Z,4.00
2019-03-05T04:58:28.183Z,4.00
2019-03-05T05:00:56.495Z,4.00
2019-03-05T05:03:24.557Z,3.90
2019-03-05T05:05:53.833Z,4.00
2019-03-05T05:08:22.879Z,4.00
2019-03-05T05:10:51.685Z,3.90
2019-03-05T05:13:22.089Z,3.90
2019-03-05T05:15:50.056Z,3.90
2019-03-05T05:18:18.788Z,3.90
2019-03-05T05:20:47.836Z,3.90
2019-03-05T05:23:17.626Z,3.90
2019-03-05T05:25:44.870Z,3.80
2019-03-05T05:28:14.204Z,3.90
2019-03-05T05:30:43.128Z,3.80
2019-03-05T05:33:14.925Z,3.80
2019-03-05T05:35:43.752Z,3.80
2019-03-05T05:38:13.525Z,3.80
2019-03-05T05:40:45.712Z,3.80
2019-03-05T05:43:16.123Z,3.80
2019-03-05T05:45:45.099Z,3.80
2019-03-05T05:48:12.371Z,3.80
2019-03-05T05:50:39.674Z,3.80
2019-03-05T05:53:07.081Z,3.80
2019-03-05T05:55:35.596Z,3.80
2019-03-05T05:58:03.116Z,3.80
2019-03-05T06:00:30.989Z,3.80
2019-03-05T06:02:58.568Z,3.80
2019-03-05T06:05:26.202Z,3.80
2019-03-05T06:07:56.996Z,3.70
2019-03-05T06:10:24.427Z,3.70
2019-03-05T06:12:52.485Z,3.80
2019-03-05T06:15:19.777Z,3.80
2019-03-05T06:17:47.282Z,3.70
2019-03-05T06:20:14.608Z,3.80
2019-03-05T06:22:42.369Z,3.80
2019-03-05T06:25:09.952Z,3.80
2019-03-05T06:27:37.319Z,3.80
2019-03-05T06:30:08.883Z,3.90
2019-03-05T06:32:40.023Z,3.90
2019-03-05T06:35:07.285Z,3.90
2019-03-05T06:37:36.343Z,4.00
2019-03-05T06:40:04.994Z,4.00
2019-03-05T06:42:32.324Z,4.10
2019-03-05T06:45:00.773Z,4.20
2019-03-05T06:47:29.252Z,4.20
2019-03-05T06:49:59.309Z,4.30
2019-03-05T06:52:27.448Z,4.30
2019-03-05T06:54:56.258Z,4.30
2019-03-05T06:57:27.810Z,4.40
2019-03-05T06:59:57.235Z,4.40
2019-03-05T07:02:27.621Z,4.40
2019-03-05T07:04:58.427Z,4.50
2019-03-05T07:07:30.250Z,4.50
2019-03-05T07:10:28.945Z,4.50
2019-03-05T07:13:12.551Z,4.50
2019-03-05T07:16:02.742Z,4.50
2019-03-05T07:18:33.658Z,4.50
2019-03-05T07:21:58.350Z,4.60
2019-03-05T07:24:46.134Z,4.70
2019-03-05T07:27:15.914Z,4.70
2019-03-05T07:29:45.399Z,4.80
2019-03-05T07:32:12.680Z,4.90
2019-03-05T07:34:43.201Z,4.90
2019-03-05T07:37:13.134Z,5.00
2019-03-05T07:39:41.334Z,5.00
2019-03-05T07:42:09.092Z,5.10
2019-03-05T07:44:37.022Z,5.10
2019-03-05T07:47:08.680Z,5.10
2019-03-05T07:49:43.637Z,5.10
2019-03-05T07:52:07.703Z,5.10
2019-03-05T07:54:37.592Z,5.20
2019-03-05T07:57:05.257Z,5.10
2019-03-05T07:59:32.790Z,5.10
2019-03-05T08:02:01.795Z,5.10
2019-03-05T08:04:29.290Z,5.20
2019-03-05T08:06:56.661Z,5.30
2019-03-05T08:09:35.602Z,5.30
2019-03-05T08:12:30.583Z,5.40
2019-03-05T08:15:08.283Z,5.40
2019-03-05T08:17:36.405Z,5.40
2019-03-05T08:20:05.793Z,5.50
2019-03-05T08:22:34.835Z,5.50
2019-03-05T08:25:02.570Z,5.60
2019-03-05T08:27:30.865Z,5.60
2019-03-05T08:29:58.563Z,5.60
2019-03-05T08:32:30.053Z,5.70
2019-03-05T08:35:00.701Z,5.70
2019-03-05T08:37:30.444Z,5.70
2019-03-05T08:40:00.327Z,5.80
2019-03-05T08:42:28.964Z,5.80
2019-03-05T08:44:57.831Z,5.90
2019-03-05T08:47:26.384Z,5.90
2019-03-05T08:49:53.967Z,5.90
2019-03-05T08:52:33.469Z,5.90
2019-03-05T08:55:03.293Z,5.90
2019-03-05T08:57:30.577Z,6.00
2019-03-05T08:59:57.951Z,6.00
2019-03-05T09:02:26.517Z,6.10
2019-03-05T09:04:54.232Z,6.20
2019-03-05T09:07:21.700Z,6.20
2019-03-05T09:09:49.040Z,6.30
2019-03-05T09:12:16.367Z,6.30
2019-03-05T09:14:44.044Z,6.30
2019-03-05T09:17:11.562Z,6.40
2019-03-05T09:19:38.868Z,6.40
2019-03-05T09:22:06.087Z,6.40
2019-03-05T09:24:33.355Z,6.40
2019-03-05T09:27:00.789Z,6.40
2019-03-05T09:29:28.233Z,6.40
2019-03-05T09:31:56.045Z,6.50
2019-03-05T09:34:23.525Z,6.50
2019-03-05T09:36:51.450Z,6.50
2019-03-05T09:39:18.820Z,6.60
2019-03-05T09:41:46.320Z,6.60
2019-03-05T09:44:15.568Z,6.60
2019-03-05T09:46:44.082Z,6.70
2019-03-05T09:49:12.101Z,6.70
2019-03-05T09:51:39.701Z,6.80
2019-03-05T09:54:07.030Z,6.90
2019-03-05T09:56:34.302Z,6.90
2019-03-05T09:59:01.643Z,6.90
2019-03-05T10:01:28.929Z,6.90
2019-03-05T10:03:56.199Z,6.90
2019-03-05T10:06:24.944Z,6.90
2019-03-05T10:08:52.723Z,7.00
2019-03-05T10:11:20.041Z,7.00
2019-03-05T10:13:47.394Z,7.00
2019-03-05T10:16:15.931Z,7.10
2019-03-05T10:18:43.395Z,7.10
2019-03-05T10:21:12.160Z,7.10
2019-03-05T10:23:39.508Z,7.20
2019-03-05T10:26:10.637Z,7.20
2019-03-05T10:28:38.381Z,7.30
2019-03-05T10:31:06.290Z,7.30
2019-03-05T10:33:33.582Z,7.30
2019-03-05T10:36:00.937Z,7.40
2019-03-05T10:38:28.412Z,7.40
2019-03-05T10:40:56.493Z,7.50
2019-03-05T10:43:23.864Z,7.50
2019-03-05T10:45:51.229Z,7.50
2019-03-05T10:48:18.966Z,7.50
2019-03-05T10:50:46.874Z,7.50
2019-03-05T10:53:14.616Z,7.60
2019-03-05T10:55:42.220Z,7.60
2019-03-05T10:58:11.802Z,7.60
2019-03-05T11:00:41.615Z,7.70
2019-03-05T11:03:09.199Z,7.70
2019-03-05T11:05:37.159Z,7.70
2019-03-05T11:08:05.449Z,7.70
2019-03-05T11:10:34.155Z,7.70
2019-03-05T11:13:01.495Z,7.80
2019-03-05T11:15:29.301Z,7.80
2019-03-05T11:17:57.584Z,7.90
2019-03-05T11:20:25.049Z,8.00
2019-03-05T11:22:52.461Z,8.00
2019-03-05T11:25:20.014Z,8.10
2019-03-05T11:27:47.592Z,8.20
2019-03-05T11:30:17.832Z,8.20
2019-03-05T11:32:45.511Z,8.30
2019-03-05T11:35:15.412Z,8.30
2019-03-05T11:37:45.608Z,8.30
2019-03-05T11:40:21.163Z,8.40
2019-03-05T11:42:43.548Z,8.40
2019-03-05T11:45:13.768Z,8.40
2019-03-05T11:47:41.469Z,8.40
2019-03-05T11:50:09.394Z,8.40
2019-03-05T11:52:36.696Z,8.40
2019-03-05T11:55:04.519Z,8.40
2019-03-05T11:57:31.998Z,8.50
2019-03-05T11:59:59.234Z,8.50
2019-03-05T12:02:26.639Z,8.50
2019-03-05T12:04:53.911Z,8.50
2019-03-05T12:07:21.379Z,8.50
2019-03-05T12:09:48.616Z,8.50
2019-03-05T12:12:16.009Z,8.50
2019-03-05T12:14:43.217Z,8.50
2019-03-05T12:17:10.540Z,8.50
2019-03-05T12:19:37.758Z,8.50
2019-03-05T12:22:06.348Z,8.50
2019-03-05T12:24:33.629Z,8.50
2019-03-05T12:27:01.072Z,8.50
2019-03-05T12:29:28.305Z,8.60
2019-03-05T12:31:55.713Z,8.80
2019-03-05T12:34:22.966Z,8.80
2019-03-05T12:36:50.230Z,8.80
2019-03-05T12:39:19.346Z,8.70
2019-03-05T12:41:46.716Z,8.60
2019-03-05T12:44:13.835Z,8.60
2019-03-05T12:46:41.195Z,8.60
2019-03-05T12:49:08.554Z,8.60
2019-03-05T12:51:35.981Z,8.50
2019-03-05T12:54:03.262Z,8.50
2019-03-05T12:56:30.493Z,8.50
2019-03-05T12:58:57.791Z,8.50
2019-03-05T13:01:25.543Z,8.50
2019-03-05T13:03:53.137Z,8.50
2019-03-05T13:06:20.428Z,8.40
2019-03-05T13:08:48.178Z,8.30
2019-03-05T13:11:15.550Z,8.30
2019-03-05T13:13:42.814Z,8.30
2019-03-05T13:16:10.166Z,8.30
2019-03-05T13:18:37.525Z,8.10
2019-03-05T13:21:07.653Z,8.00
2019-03-05T13:23:34.212Z,7.90
2019-03-05T13:26:03.140Z,7.90
2019-03-05T13:28:30.694Z,7.90
2019-03-05T13:31:00.422Z,7.80
2019-03-05T13:33:27.865Z,7.70
2019-03-05T13:35:55.112Z,7.70
2019-03-05T13:38:22.540Z,7.60
2019-03-05T13:40:49.880Z,7.60
2019-03-05T13:43:17.144Z,7.50
2019-03-05T13:45:49.593Z,7.50
2019-03-05T13:49:14.374Z,7.40
2019-03-05T13:52:39.752Z,7.40
2019-03-05T13:55:40.467Z,7.30
2019-03-05T13:58:45.332Z,7.20
2019-03-05T14:01:12.682Z,7.20
2019-03-05T14:03:45.539Z,7.20
2019-03-05T14:06:32.453Z,7.20
2019-03-05T14:09:11.905Z,7.10
2019-03-05T14:11:39.361Z,7.10
2019-03-05T14:14:08.664Z,7.10
2019-03-05T14:16:36.183Z,7.10
2019-03-05T14:19:03.930Z,7.10
2019-03-05T14:21:31.299Z,7.10
2019-03-05T14:23:58.498Z,7.10
2019-03-05T14:26:25.881Z,7.10
2019-03-05T14:28:53.367Z,7.00
2019-03-05T14:31:20.855Z,7.00
2019-03-05T14:33:50.321Z,7.00
2019-03-05T14:36:17.450Z,7.00
2019-03-05T14:38:44.966Z,7.00
2019-03-05T14:41:13.517Z,7.00
2019-03-05T14:43:40.868Z,7.00
2019-03-05T14:46:08.222Z,7.00
2019-03-05T14:48:35.478Z,6.90
2019-03-05T14:51:03.198Z,6.90
2019-03-05T14:53:30.589Z,6.80
2019-03-05T14:55:57.739Z,6.80
2019-03-05T14:58:25.052Z,6.80
2019-03-05T15:00:52.505Z,6.80
2019-03-05T15:03:19.833Z,6.80
2019-03-05T15:05:47.257Z,6.80
2019-03-05T15:08:14.759Z,6.70
2019-03-05T15:10:42.531Z,6.80
2019-03-05T15:13:16.185Z,6.70
2019-03-05T15:15:39.087Z,6.70
2019-03-05T15:18:06.489Z,6.70
2019-03-05T15:20:33.958Z,6.60
2019-03-05T15:23:01.225Z,6.70
2019-03-05T15:25:28.542Z,6.60
2019-03-05T15:27:55.834Z,6.60
2019-03-05T15:30:23.207Z,6.60
2019-03-05T15:32:50.581Z,6.50
2019-03-05T15:35:18.628Z,6.50
2019-03-05T15:37:45.914Z,6.50
2019-03-05T15:40:14.203Z,6.50
2019-03-05T15:42:41.471Z,6.50
2019-03-05T15:45:11.347Z,6.50
2019-03-05T15:47:42.466Z,6.50
2019-03-05T15:50:10.103Z,6.40
2019-03-05T15:52:37.458Z,6.40
2019-03-05T15:55:05.951Z,6.30
2019-03-05T15:57:33.191Z,6.30
2019-03-05T16:00:00.671Z,6.30
2019-03-05T16:02:28.033Z,6.20
2019-03-05T16:04:55.186Z,6.20
2019-03-05T16:07:22.862Z,6.10
2019-03-05T16:09:51.006Z,6.10
2019-03-05T16:12:18.370Z,6.00
2019-03-05T16:14:47.513Z,6.00
2019-03-05T16:17:15.140Z,6.00
2019-03-05T16:19:42.619Z,6.00
2019-03-05T16:22:10.009Z,6.00
2019-03-05T16:24:37.663Z,5.90
2019-03-05T16:27:06.325Z,5.90
2019-03-05T16:29:33.717Z,5.90
2019-03-05T16:32:17.044Z,5.90
2019-03-05T16:35:03.917Z,5.90
2019-03-05T16:37:53.992Z,5.80
2019-03-05T16:40:30.385Z,5.80
2019-03-05T16:43:13.659Z,5.80
2019-03-05T16:45:57.057Z,5.80
2019-03-05T16:48:31.378Z,5.80
2019-03-05T16:51:04.152Z,5.80
2019-03-05T16:53:52.748Z,5.80
2019-03-05T16:56:45.626Z,5.70
2019-03-05T16:59:26.742Z,5.70
2019-03-05T17:02:12.310Z,5.70
2019-03-05T17:05:09.337Z,5.70
2019-03-05T17:07:56.687Z,5.60
2019-03-05T17:10:52.710Z,5.60
2019-03-05T17:13:20.338Z,5.60
2019-03-05T17:15:47.840Z,5.60
2019-03-05T17:18:15.120Z,5.60
2019-03-05T17:20:42.814Z,5.60
2019-03-05T17:23:10.637Z,5.60
2019-03-05T17:25:38.251Z,5.60
2019-03-05T17:28:05.569Z,5.50
2019-03-05T17:30:33.211Z,5.50
2019-03-05T17:33:00.673Z,5.50
2019-03-05T17:35:28.673Z,5.50
2019-03-05T17:37:56.284Z,5.50
2019-03-05T17:40:24.090Z,5.40
2019-03-05T17:42:52.073Z,5.40
2019-03-05T17:45:20.135Z,5.40
2019-03-05T17:47:48.007Z,5.40
2019-03-05T17:50:15.540Z,5.40
2019-03-05T17:52:44.224Z,5.30
2019-03-05T17:55:23.572Z,5.30
2019-03-05T17:57:44.037Z,5.30
2019-03-05T18:00:17.232Z,5.40
2019-03-05T18:02:45.568Z,5.30
2019-03-05T18:05:13.227Z,5.30
2019-03-05T18:07:40.622Z,5.30
2019-03-05T18:10:08.459Z,5.40
2019-03-05T18:12:36.216Z,5.30
2019-03-05T18:15:04.801Z,5.30
2019-03-05T18:17:34.011Z,5.30
2019-03-05T18:20:01.436Z,5.30
2019-03-05T18:22:30.617Z,5.30
2019-03-05T18:24:57.833Z,5.20
2019-03-05T18:27:25.436Z,5.20
2019-03-05T18:29:52.719Z,5.20
2019-03-05T18:32:20.045Z,5.20
2019-03-05T18:34:47.367Z,5.30
2019-03-05T18:37:14.749Z,5.30
2019-03-05T18:39:42.603Z,5.30
2019-03-05T18:42:10.044Z,5.30
2019-03-05T18:44:37.332Z,5.30
2019-03-05T18:47:04.861Z,5.30
2019-03-05T18:49:32.551Z,5.30
2019-03-05T18:52:00.089Z,5.30
2019-03-05T18:54:27.349Z,5.30
2019-03-05T18:56:54.703Z,5.30
2019-03-05T18:59:22.105Z,5.30
2019-03-05T19:01:49.441Z,5.30
2019-03-05T19:04:16.802Z,5.30
2019-03-05T19:06:44.382Z,5.30
2019-03-05T19:09:12.729Z,5.30
2019-03-05T19:11:41.239Z,5.30
2019-03-05T19:14:08.579Z,5.30
2019-03-05T19:16:35.826Z,5.40
2019-03-05T19:19:03.298Z,5.40
2019-03-05T19:21:31.620Z,5.40
2019-03-05T19:23:58.695Z,5.30
2019-03-05T19:26:26.063Z,5.40
2019-03-05T19:28:53.153Z,5.30
2019-03-05T19:31:20.632Z,5.40
2019-03-05T19:33:48.266Z,5.40
2019-03-05T19:36:15.478Z,5.30
2019-03-05T19:38:43.147Z,5.40
2019-03-05T19:41:10.515Z,5.40
2019-03-05T19:43:37.982Z,5.30
2019-03-05T19:46:05.763Z,5.30
2019-03-05T19:48:33.146Z,5.40
2019-03-05T19:51:00.365Z,5.40
2019-03-05T19:53:27.763Z,5.40
2019-03-05T19:55:55.129Z,5.40
2019-03-05T19:58:22.216Z,5.40
2019-03-05T20:01:24.300Z,5.30
2019-03-05T20:03:51.648Z,5.30
2019-03-05T20:06:19.172Z,5.30
2019-03-05T20:08:48.195Z,5.40
2019-03-05T20:11:15.462Z,5.40
2019-03-05T20:13:42.840Z,5.40
2019-03-05T20:16:12.308Z,5.40
2019-03-05T20:18:40.690Z,5.40
2019-03-05T20:21:08.394Z,5.40
2019-03-05T20:23:35.836Z,5.40
2019-03-05T20:26:04.655Z,5.40
2019-03-05T20:28:32.101Z,5.40
2019-03-05T20:30:59.569Z,5.40
2019-03-05T20:33:26.829Z,5.40
2019-03-05T20:35:54.126Z,5.40
2019-03-05T20:38:21.639Z,5.40
2019-03-05T20:40:50.842Z,5.40
2019-03-05T20:43:18.333Z,5.40
2019-03-05T20:45:46.083Z,5.40
2019-03-05T20:48:13.693Z,5.40
2019-03-05T20:50:42.180Z,5.40
2019-03-05T20:53:09.486Z,5.40
2019-03-05T20:55:37.356Z,5.40
2019-03-05T20:58:06.064Z,5.40
2019-03-05T21:00:33.524Z,5.40
2019-03-05T21:03:02.194Z,5.40
2019-03-05T21:05:34.660Z,5.40
2019-03-05T21:08:02.474Z,5.40
2019-03-05T21:10:29.913Z,5.40
2019-03-05T21:12:57.398Z,5.40
2019-03-05T21:15:25.098Z,5.40
2019-03-05T21:17:52.620Z,5.40
2019-03-05T21:20:20.365Z,5.40
2019-03-05T21:22:47.788Z,5.40
2019-03-05T21:25:15.350Z,5.40
2019-03-05T21:27:43.033Z,5.40
2019-03-05T21:30:13.069Z,5.40
2019-03-05T21:32:40.546Z,5.40
2019-03-05T21:35:08.466Z,5.40
2019-03-05T21:37:35.860Z,5.40
2019-03-05T21:40:04.030Z,5.40
2019-03-05T21:42:31.516Z,5.40
2019-03-05T21:44:58.654Z,5.40
2019-03-05T21:47:26.221Z,5.40
2019-03-05T21:49:53.685Z,5.40
2019-03-05T21:52:21.092Z,5.40
2019-03-05T21:54:48.809Z,5.30
2019-03-05T21:57:16.156Z,5.30
2019-03-05T21:59:43.259Z,5.30
2019-03-05T22:02:10.714Z,5.30
2019-03-05T22:04:38.021Z,5.30
2019-03-05T22:07:05.205Z,5.40
2019-03-05T22:09:32.593Z,5.40
2019-03-05T22:12:00.076Z,5.40
2019-03-05T22:14:27.570Z,5.40
2019-03-05T22:16:55.067Z,5.40
2019-03-05T22:19:22.414Z,5.40
2019-03-05T22:21:50.096Z,5.40
2019-03-05T22:24:17.757Z,5.40
2019-03-05T22:26:45.699Z,5.40
2019-03-05T22:29:13.176Z,5.40
2019-03-05T22:31:40.614Z,5.40
2019-03-05T22:34:08.069Z,5.40
2019-03-05T22:36:35.579Z,5.40
2019-03-05T22:39:05.494Z,5.40
2019-03-05T22:41:34.616Z,5.40
2019-03-05T22:44:02.149Z,5.40
2019-03-05T22:46:30.190Z,5.40
2019-03-05T22:48:57.674Z,5.40
2019-03-05T22:51:25.249Z,5.40
2019-03-05T22:53:52.535Z,5.40
2019-03-05T22:56:20.370Z,5.40
2019-03-05T22:58:47.709Z,5.40
2019-03-05T23:01:24.512Z,5.40
2019-03-05T23:03:55.526Z,5.40
2019-03-05T23:06:23.086Z,5.40
2019-03-05T23:08:50.570Z,5.40
2019-03-05T23:11:18.148Z,5.40
2019-03-05T23:13:45.791Z,5.40
2019-03-05T23:16:14.094Z,5.40
2019-03-05T23:18:41.704Z,5.40
2019-03-05T23:21:09.013Z,5.30
2019-03-05T23:23:36.592Z,5.30
2019-03-05T23:26:04.308Z,5.30
2019-03-05T23:28:31.661Z,5.20
2019-03-05T23:30:58.890Z,5.20
2019-03-05T23:33:27.369Z,5.20
2019-03-05T23:35:54.581Z,5.10
2019-03-05T23:38:22.136Z,5.10
2019-03-05T23:40:49.755Z,5.10
2019-03-05T23:43:17.122Z,5.00
2019-03-05T23:45:44.467Z,5.00
2019-03-05T23:48:11.874Z,5.00
2019-03-05T23:50:39.886Z,5.00
2019-03-05T23:53:07.110Z,5.00
2019-03-05T23:55:34.692Z,4.90
2019-03-05T23:58:01.929Z,4.90
